Indian Village, Louisiana
Current Conditions -  °F | °C
As of 3:35 PM on Friday 24 Oct 2014 (Local Time) from KRSN Reporting Station
Clear Clear  
Wind Chill: 74°   Ceiling: Unl
Heat Index: 74°   Visibility: 10mi
Dew Point: 50°   Wind: 5mph
Humidity: 44%   Direction: 30°NNE
Pressure: 30.15"   Gusts: NA
Location:  32.5064°N, 92.3457°W
Report Text: KRSN 242035Z AUTO 03004KT 10SM CLR 23/10 A3015 RMK AO2 T02320102
Loading
Personal Weather Stations






























Interactive Weather Map
Tropical Storm Tracking
New forecast layout! Learn more

10-Day Weather Forecast

Advertisements
Track Severe Weather on mobile